createdAt,value
2023-01-05T00:04:24.465Z,71.35
2023-01-05T00:09:18.716Z,71.04
2023-01-05T00:14:33.035Z,70.86
2023-01-05T00:19:43.135Z,70.87
2023-01-05T00:24:34.717Z,70.84
2023-01-05T00:29:26.249Z,70.83
2023-01-05T00:34:17.887Z,70.89
2023-01-05T00:39:09.506Z,70.96
2023-01-05T00:44:01.090Z,71.63
2023-01-05T00:48:52.770Z,70.75
2023-01-05T00:53:44.399Z,70.69
2023-01-05T00:58:36.135Z,70.94
2023-01-05T01:03:27.708Z,70.56
2023-01-05T01:08:20.049Z,70.94
2023-01-05T01:13:11.625Z,70.97
2023-01-05T01:18:03.199Z,70.80
2023-01-05T01:22:54.752Z,70.81
2023-01-05T01:27:46.591Z,70.66
2023-01-05T01:32:38.320Z,70.67
2023-01-05T01:37:31.144Z,71.05
2023-01-05T01:42:23.860Z,70.81
2023-01-05T01:47:24.618Z,70.99
2023-01-05T01:52:17.102Z,70.97
2023-01-05T01:57:11.641Z,71.22
2023-01-05T02:02:03.406Z,71.40
2023-01-05T02:06:56.203Z,71.36
2023-01-05T02:12:12.117Z,71.68
2023-01-05T02:17:15.844Z,71.72
2023-01-05T02:22:16.520Z,72.15
2023-01-05T02:27:24.533Z,71.71
2023-01-05T02:32:25.667Z,71.26
2023-01-05T02:37:46.740Z,71.63
2023-01-05T02:42:41.685Z,71.12
2023-01-05T02:47:40.004Z,71.69
2023-01-05T02:52:42.835Z,72.73
2023-01-05T02:57:47.593Z,72.93
2023-01-05T03:02:49.398Z,72.61
2023-01-05T03:07:43.955Z,71.74
2023-01-05T03:13:13.357Z,71.71
2023-01-05T03:18:08.492Z,72.12
2023-01-05T03:23:29.828Z,72.26
2023-01-05T03:28:44.671Z,72.33
2023-01-05T03:34:01.945Z,72.81
2023-01-05T03:38:57.612Z,72.27
2023-01-05T03:43:52.236Z,71.83
2023-01-05T03:48:45.076Z,72.20
2023-01-05T03:53:37.321Z,71.52
2023-01-05T03:58:28.997Z,71.95
2023-01-05T04:03:25.049Z,71.83
2023-01-05T04:08:20.088Z,71.99
2023-01-05T04:13:12.198Z,71.96
2023-01-05T04:18:03.813Z,71.56
2023-01-05T04:22:55.777Z,71.74
2023-01-05T04:27:48.296Z,71.59
2023-01-05T04:32:41.941Z,71.65
2023-01-05T04:37:39.450Z,71.27
2023-01-05T04:42:31.681Z,71.90
2023-01-05T04:47:23.355Z,71.81
2023-01-05T04:52:16.279Z,71.83
2023-01-05T04:57:09.513Z,71.86
2023-01-05T05:02:03.349Z,72.78
2023-01-05T05:06:57.380Z,75.40
2023-01-05T05:11:51.324Z,75.68
2023-01-05T05:16:46.707Z,76.48
2023-01-05T05:21:39.131Z,76.45
2023-01-05T05:26:30.843Z,75.81
2023-01-05T05:31:24.263Z,76.09
2023-01-05T05:36:17.843Z,75.60
2023-01-05T05:41:10.991Z,75.08
2023-01-05T05:46:02.985Z,75.06
2023-01-05T05:50:55.320Z,74.64
2023-01-05T05:55:51.010Z,75.09
2023-01-05T06:00:42.555Z,74.78
2023-01-05T06:05:34.122Z,75.24
2023-01-05T06:10:25.725Z,75.13
2023-01-05T06:15:17.460Z,75.97
2023-01-05T06:20:09.942Z,75.24
2023-01-05T06:25:01.505Z,75.13
2023-01-05T06:29:53.334Z,75.20
2023-01-05T06:34:44.904Z,74.64
2023-01-05T06:39:36.475Z,74.69
2023-01-05T06:44:28.167Z,75.06
2023-01-05T06:49:19.775Z,75.08
2023-01-05T06:54:11.432Z,74.87
2023-01-05T06:59:03.064Z,74.64
2023-01-05T07:03:54.781Z,74.97
2023-01-05T07:08:46.438Z,74.94
2023-01-05T07:13:37.995Z,74.88
2023-01-05T07:18:29.621Z,74.63
2023-01-05T07:23:21.261Z,74.79
2023-01-05T07:28:12.979Z,74.17
2023-01-05T07:33:05.235Z,74.88
2023-01-05T07:37:57.253Z,75.16
2023-01-05T07:42:53.405Z,75.29
2023-01-05T07:47:46.031Z,76.10
2023-01-05T07:52:39.073Z,75.81
2023-01-05T07:57:31.555Z,76.14
2023-01-05T08:02:23.340Z,75.56
2023-01-05T08:07:15.737Z,75.13
2023-01-05T08:12:07.565Z,75.17
2023-01-05T08:16:59.192Z,74.57
2023-01-05T08:21:50.779Z,74.63
2023-01-05T08:26:42.413Z,74.17
2023-01-05T08:31:37.483Z,74.02
2023-01-05T08:36:31.482Z,73.48
2023-01-05T08:41:28.418Z,73.40
2023-01-05T08:46:22.630Z,72.41
2023-01-05T08:51:14.473Z,72.08
2023-01-05T08:56:06.435Z,71.96
2023-01-05T09:00:58.165Z,71.33
2023-01-05T09:05:55.198Z,71.09
2023-01-05T09:10:46.816Z,70.63
2023-01-05T09:15:38.625Z,70.28
2023-01-05T09:20:33.215Z,71.18
2023-01-05T09:25:29.446Z,70.42
2023-01-05T09:30:21.133Z,68.96
2023-01-05T09:35:13.741Z,67.91
2023-01-05T09:40:05.976Z,68.07
2023-01-05T09:45:03.205Z,67.29
2023-01-05T09:49:58.050Z,66.87
2023-01-05T09:54:49.650Z,67.05
2023-01-05T09:59:45.115Z,66.99
2023-01-05T10:04:36.870Z,67.17
2023-01-05T10:09:33.246Z,66.73
2023-01-05T10:14:32.265Z,66.39
2023-01-05T10:19:23.936Z,66.33
2023-01-05T10:24:31.777Z,66.42
2023-01-05T10:29:31.274Z,66.02
2023-01-05T10:34:41.950Z,65.85
2023-01-05T10:40:01.956Z,64.70
2023-01-05T10:44:59.685Z,64.41
2023-01-05T10:49:51.651Z,63.57
2023-01-05T10:54:44.345Z,64.25
2023-01-05T10:59:54.727Z,63.32
2023-01-05T11:04:48.584Z,62.60
2023-01-05T11:09:41.598Z,62.47
2023-01-05T11:14:40.772Z,61.12
2023-01-05T11:19:37.113Z,61.11
2023-01-05T11:24:34.526Z,60.83
2023-01-05T11:29:26.151Z,60.89
2023-01-05T11:34:42.467Z,61.09
2023-01-05T11:39:47.665Z,60.68
2023-01-05T11:44:47.679Z,60.32
2023-01-05T11:49:39.481Z,59.46
2023-01-05T11:54:38.126Z,59.91
2023-01-05T11:59:30.115Z,60.07
2023-01-05T12:04:27.934Z,59.95
2023-01-05T12:09:35.292Z,59.00
2023-01-05T12:14:39.531Z,59.61
2023-01-05T12:19:49.220Z,58.60
2023-01-05T12:25:01.693Z,57.22
2023-01-05T12:35:37.228Z,56.57
2023-01-05T12:40:46.205Z,56.74
2023-01-05T12:46:08.363Z,57.86
2023-01-05T12:51:16.524Z,59.20
2023-01-05T12:56:23.525Z,58.33
2023-01-05T13:01:23.696Z,58.32
2023-01-05T13:06:20.197Z,58.51
2023-01-05T13:11:18.051Z,58.91
2023-01-05T13:16:30.326Z,58.81
2023-01-05T13:21:24.038Z,59.09
2023-01-05T13:26:18.698Z,59.93
2023-01-05T13:31:56.483Z,59.63
2023-01-05T13:37:25.888Z,59.73
2023-01-05T13:42:42.561Z,60.63
2023-01-05T13:48:13.056Z,61.28
2023-01-05T13:53:12.128Z,62.16
2023-01-05T13:58:24.706Z,62.66
2023-01-05T14:03:33.054Z,63.34
2023-01-05T14:08:32.327Z,63.29
2023-01-05T14:13:42.011Z,63.14
2023-01-05T14:18:51.052Z,63.36
2023-01-05T14:23:42.602Z,63.51
2023-01-05T14:28:34.445Z,63.96
2023-01-05T14:33:26.337Z,63.43
2023-01-05T14:38:23.176Z,64.21
2023-01-05T14:43:29.937Z,63.97
2023-01-05T14:48:30.364Z,63.90
2023-01-05T14:53:44.213Z,64.24
2023-01-05T14:58:35.784Z,64.45
2023-01-05T15:03:38.952Z,64.33
2023-01-05T15:08:53.898Z,64.86
2023-01-05T15:14:37.761Z,65.75
2023-01-05T15:19:40.739Z,66.94
2023-01-05T15:25:07.605Z,67.25
2023-01-05T15:30:02.301Z,67.45
2023-01-05T15:35:20.549Z,67.70
2023-01-05T15:40:21.406Z,67.99
2023-01-05T15:45:31.742Z,67.61
2023-01-05T15:50:27.615Z,67.63
2023-01-05T15:55:19.525Z,68.05
2023-01-05T16:00:22.855Z,70.58
2023-01-05T16:05:24.749Z,71.66
2023-01-05T16:10:19.079Z,72.27
2023-01-05T16:15:15.892Z,74.03
2023-01-05T16:20:18.679Z,76.34
2023-01-05T16:25:31.115Z,77.31
2023-01-05T16:30:31.540Z,79.19
2023-01-05T16:35:47.298Z,79.41
2023-01-05T16:40:48.072Z,80.12
2023-01-05T16:45:39.657Z,80.30
2023-01-05T16:50:37.136Z,80.51
2023-01-05T16:55:30.034Z,81.75
2023-01-05T17:00:30.882Z,82.19
2023-01-05T17:05:29.058Z,82.79
2023-01-05T17:10:25.609Z,82.86
2023-01-05T17:15:22.248Z,82.80
2023-01-05T17:20:14.415Z,82.73
2023-01-05T17:25:09.904Z,82.72
2023-01-05T17:30:02.989Z,82.97
2023-01-05T17:34:54.541Z,82.78
2023-01-05T17:39:46.886Z,82.68
2023-01-05T17:44:38.433Z,82.64
2023-01-05T17:49:32.828Z,83.16
2023-01-05T17:54:24.424Z,84.19
2023-01-05T17:59:15.979Z,84.01
2023-01-05T18:04:07.568Z,83.38
2023-01-05T18:08:59.155Z,83.17
2023-01-05T18:13:50.827Z,83.13
2023-01-05T18:18:42.513Z,83.49
2023-01-05T18:23:34.383Z,83.31
2023-01-05T18:28:25.991Z,83.12
2023-01-05T18:33:17.628Z,82.73
2023-01-05T18:38:09.536Z,82.36
2023-01-05T18:43:01.104Z,82.54
2023-01-05T18:47:56.668Z,82.82
2023-01-05T18:52:48.624Z,82.59
2023-01-05T18:57:40.289Z,82.69
2023-01-05T19:02:32.120Z,82.39
2023-01-05T19:07:23.850Z,82.92
2023-01-05T19:12:15.497Z,82.81
2023-01-05T19:17:07.216Z,82.30
2023-01-05T19:21:58.862Z,82.45
2023-01-05T19:26:51.110Z,82.47
2023-01-05T19:31:43.860Z,82.78
2023-01-05T19:36:36.186Z,82.47
2023-01-05T19:41:28.626Z,83.09
2023-01-05T19:46:22.221Z,83.76
2023-01-05T19:51:16.552Z,84.23
2023-01-05T19:56:14.291Z,84.15
2023-01-05T20:01:14.511Z,84.16
2023-01-05T20:06:21.722Z,84.44
2023-01-05T20:11:13.954Z,84.90
2023-01-05T20:16:11.385Z,85.91
2023-01-05T20:21:05.116Z,85.98
2023-01-05T20:26:08.941Z,86.37
2023-01-05T20:31:00.600Z,86.95
2023-01-05T20:35:52.318Z,87.04
2023-01-05T20:40:43.951Z,87.36
2023-01-05T20:45:35.657Z,87.70
2023-01-05T20:50:27.524Z,88.21
2023-01-05T20:55:19.971Z,88.43
2023-01-05T21:00:14.269Z,88.63
2023-01-05T21:05:06.479Z,89.05
2023-01-05T21:09:58.933Z,89.20
2023-01-05T21:14:50.659Z,89.37
2023-01-05T21:19:42.248Z,89.29
2023-01-05T21:24:33.920Z,89.43
2023-01-05T21:29:26.345Z,89.26
2023-01-05T21:34:18.369Z,89.03
2023-01-05T21:39:17.310Z,88.84
2023-01-05T21:44:10.952Z,88.79
2023-01-05T21:49:03.162Z,88.37
2023-01-05T21:54:13.361Z,88.69
2023-01-05T21:59:08.779Z,88.52
2023-01-05T22:04:00.458Z,89.04
2023-01-05T22:08:52.370Z,88.83
2023-01-05T22:13:43.966Z,89.04
2023-01-05T22:18:35.656Z,88.88
2023-01-05T22:23:29.323Z,89.12
2023-01-05T22:28:21.044Z,89.20
2023-01-05T22:33:12.756Z,88.91
2023-01-05T22:38:04.357Z,89.04
2023-01-05T22:42:55.923Z,88.66
2023-01-05T22:47:47.586Z,88.81
2023-01-05T22:52:39.270Z,88.34
2023-01-05T22:57:30.898Z,88.31
2023-01-05T23:02:23.771Z,88.18
2023-01-05T23:07:17.341Z,88.05
2023-01-05T23:12:09.621Z,87.83
2023-01-05T23:17:02.249Z,87.32
2023-01-05T23:21:53.796Z,86.86
2023-01-05T23:26:45.367Z,85.78
2023-01-05T23:31:36.932Z,86.18
2023-01-05T23:36:28.558Z,86.87
2023-01-05T23:41:20.417Z,87.23
2023-01-05T23:46:19.962Z,87.21
2023-01-05T23:51:14.120Z,87.41
2023-01-05T23:56:12.661Z,87.02
